createdAt,value
2023-01-06T00:00:01.957Z,1023.07
2023-01-06T00:01:02.183Z,1023.10
2023-01-06T00:02:02.443Z,1023.07
2023-01-06T00:03:02.497Z,1023.11
2023-01-06T00:04:02.693Z,1023.14
2023-01-06T00:05:02.852Z,1023.12
2023-01-06T00:06:03.101Z,1023.07
2023-01-06T00:07:03.203Z,1023.12
2023-01-06T00:08:03.389Z,1023.15
2023-01-06T00:09:03.559Z,1023.12
2023-01-06T00:10:03.707Z,1023.10
2023-01-06T00:11:03.871Z,1023.09
2023-01-06T00:12:04.031Z,1023.07
2023-01-06T00:13:04.194Z,1023.07
2023-01-06T00:14:04.351Z,1023.07
2023-01-06T00:15:04.510Z,1023.07
2023-01-06T00:16:04.756Z,1023.01
2023-01-06T00:17:04.891Z,1022.99
2023-01-06T00:18:05.049Z,1022.99
2023-01-06T00:19:05.208Z,1022.97
2023-01-06T00:20:05.390Z,1022.98
2023-01-06T00:21:05.547Z,1023.01
2023-01-06T00:22:05.737Z,1023.02
2023-01-06T00:23:05.907Z,1023.03
2023-01-06T00:24:06.062Z,1023.02
2023-01-06T00:25:06.223Z,1022.99
2023-01-06T00:26:06.421Z,1023.01
2023-01-06T00:27:06.600Z,1023.00
2023-01-06T00:28:06.748Z,1023.03
2023-01-06T00:29:06.906Z,1023.04
2023-01-06T00:30:07.097Z,1022.99
2023-01-06T00:31:07.389Z,1023.01
2023-01-06T00:32:07.441Z,1023.00
2023-01-06T00:33:07.591Z,1023.05
2023-01-06T00:34:07.791Z,1022.97
2023-01-06T00:35:07.939Z,1022.96
2023-01-06T00:36:08.147Z,1022.93
2023-01-06T00:37:08.318Z,1022.88
2023-01-06T00:38:08.482Z,1022.91
2023-01-06T00:39:08.631Z,1022.90
2023-01-06T00:40:08.777Z,1022.92
2023-01-06T00:41:08.977Z,1022.94
2023-01-06T00:42:09.149Z,1022.96
2023-01-06T00:43:09.298Z,1022.97
2023-01-06T00:44:09.504Z,1023.00
2023-01-06T00:45:09.660Z,1023.02
2023-01-06T00:46:09.876Z,1023.03
2023-01-06T00:47:10.040Z,1023.00
2023-01-06T00:48:10.199Z,1022.97
2023-01-06T00:49:10.347Z,1022.96
2023-01-06T00:50:10.512Z,1022.97
2023-01-06T00:51:10.667Z,1023.01
2023-01-06T00:52:10.876Z,1023.00
2023-01-06T00:53:11.020Z,1023.01
2023-01-06T00:54:11.216Z,1022.97
2023-01-06T00:55:11.406Z,1023.00
2023-01-06T00:56:11.606Z,1022.93
2023-01-06T00:57:11.798Z,1022.90
2023-01-06T00:58:11.939Z,1022.94
2023-01-06T00:59:12.096Z,1022.91
2023-01-06T01:00:12.261Z,1022.86
2023-01-06T01:01:12.476Z,1022.89
2023-01-06T01:02:12.760Z,1022.87
2023-01-06T01:03:12.813Z,1022.82
2023-01-06T01:04:12.967Z,1022.79
2023-01-06T01:05:13.148Z,1022.79
2023-01-06T01:06:13.349Z,1022.77
2023-01-06T01:07:13.506Z,1022.82
2023-01-06T01:08:13.671Z,1022.79
2023-01-06T01:09:13.829Z,1022.85
2023-01-06T01:10:14.018Z,1022.85
2023-01-06T01:11:14.187Z,1022.87
2023-01-06T01:12:14.363Z,1022.86
2023-01-06T01:13:14.510Z,1022.89
2023-01-06T01:14:14.665Z,1022.83
2023-01-06T01:15:14.826Z,1022.80
2023-01-06T01:16:15.113Z,1022.82
2023-01-06T01:17:15.175Z,1022.84
2023-01-06T01:18:15.374Z,1022.82
2023-01-06T01:19:15.525Z,1022.84
2023-01-06T01:20:15.719Z,1022.78
2023-01-06T01:21:15.879Z,1022.83
2023-01-06T01:22:16.085Z,1022.80
2023-01-06T01:23:16.224Z,1022.73
2023-01-06T01:24:16.429Z,1022.73
2023-01-06T01:25:16.584Z,1022.69
2023-01-06T01:26:16.801Z,1022.71
2023-01-06T01:27:16.964Z,1022.68
2023-01-06T01:28:17.155Z,1022.70
2023-01-06T01:29:17.304Z,1022.67
2023-01-06T01:30:17.498Z,1022.69
2023-01-06T01:31:17.733Z,1022.71
2023-01-06T01:32:17.852Z,1022.68
2023-01-06T01:33:18.025Z,1022.67
2023-01-06T01:34:18.184Z,1022.68
2023-01-06T01:35:18.374Z,1022.68
2023-01-06T01:36:18.582Z,1022.69
2023-01-06T01:37:18.736Z,1022.68
2023-01-06T01:38:18.928Z,1022.64
2023-01-06T01:39:19.150Z,1022.65
2023-01-06T01:40:19.304Z,1022.63
2023-01-06T01:41:19.530Z,1022.73
2023-01-06T01:42:19.689Z,1022.60
2023-01-06T01:43:19.833Z,1022.60
2023-01-06T01:44:20.052Z,1022.59
2023-01-06T01:45:20.214Z,1022.59
2023-01-06T01:46:20.463Z,1022.65
2023-01-06T01:47:20.566Z,1022.60
2023-01-06T01:48:20.752Z,1022.58
2023-01-06T01:49:20.923Z,1022.60
2023-01-06T01:50:21.104Z,1022.59
2023-01-06T01:51:21.282Z,1022.60
2023-01-06T01:52:21.403Z,1022.55
2023-01-06T01:53:21.564Z,1022.49
2023-01-06T01:54:21.750Z,1022.47
2023-01-06T01:55:21.903Z,1022.47
2023-01-06T01:56:22.111Z,1022.45
2023-01-06T01:57:22.261Z,1022.50
2023-01-06T01:58:22.452Z,1022.47
2023-01-06T01:59:22.614Z,1022.45
2023-01-06T02:00:22.799Z,1022.44
2023-01-06T02:01:23.087Z,1022.42
2023-01-06T02:02:23.284Z,1022.46
2023-01-06T02:03:23.341Z,1022.49
2023-01-06T02:04:23.516Z,1022.48
2023-01-06T02:05:23.651Z,1022.45
2023-01-06T02:06:23.851Z,1022.41
2023-01-06T02:07:24.017Z,1022.43
2023-01-06T02:08:24.175Z,1022.41
2023-01-06T02:09:24.322Z,1022.39
2023-01-06T02:10:24.530Z,1022.37
2023-01-06T02:11:24.693Z,1022.30
2023-01-06T02:12:24.851Z,1022.29
2023-01-06T02:13:25.008Z,1022.29
2023-01-06T02:14:25.200Z,1022.26
2023-01-06T02:15:25.385Z,1022.18
2023-01-06T02:16:25.664Z,1022.20
2023-01-06T02:17:25.735Z,1022.15
2023-01-06T02:18:25.920Z,1022.19
2023-01-06T02:19:26.081Z,1022.23
2023-01-06T02:20:26.282Z,1022.27
2023-01-06T02:21:26.441Z,1022.27
2023-01-06T02:22:26.599Z,1022.25
2023-01-06T02:23:26.752Z,1022.23
2023-01-06T02:24:26.949Z,1022.21
2023-01-06T02:25:27.119Z,1022.20
2023-01-06T02:26:27.310Z,1022.21
2023-01-06T02:27:27.476Z,1022.21
2023-01-06T02:28:27.621Z,1022.16
2023-01-06T02:29:27.788Z,1022.14
2023-01-06T02:30:27.985Z,1022.12
2023-01-06T02:31:28.276Z,1022.15
2023-01-06T02:32:28.335Z,1022.15
2023-01-06T02:33:28.488Z,1022.10
2023-01-06T02:34:28.680Z,1022.12
2023-01-06T02:35:28.843Z,1022.07
2023-01-06T02:36:29.053Z,1022.05
2023-01-06T02:37:29.199Z,1022.06
2023-01-06T02:38:29.396Z,1022.02
2023-01-06T02:39:29.538Z,1022.07
2023-01-06T02:40:29.739Z,1022.06
2023-01-06T02:41:29.971Z,1022.05
2023-01-06T02:42:30.085Z,1022.03
2023-01-06T02:43:30.280Z,1022.02
2023-01-06T02:44:30.471Z,1021.95
2023-01-06T02:45:30.632Z,1022.02
2023-01-06T02:46:30.888Z,1022.08
2023-01-06T02:47:30.988Z,1022.03
2023-01-06T02:48:31.178Z,1022.08
2023-01-06T02:49:31.340Z,1022.09
2023-01-06T02:50:31.558Z,1022.01
2023-01-06T02:51:31.687Z,1021.99
2023-01-06T02:52:31.879Z,1022.00
2023-01-06T02:53:32.058Z,1022.01
2023-01-06T02:54:32.251Z,1022.03
2023-01-06T02:55:32.428Z,1022.05
2023-01-06T02:56:32.587Z,1022.05
2023-01-06T02:57:32.753Z,1022.08
2023-01-06T02:58:32.936Z,1022.01
2023-01-06T02:59:33.101Z,1021.95
2023-01-06T03:00:33.265Z,1021.98
2023-01-06T03:01:33.540Z,1022.03
2023-01-06T03:02:33.625Z,1021.99
2023-01-06T03:03:33.779Z,1021.99
2023-01-06T03:04:34.024Z,1021.98
2023-01-06T03:05:34.151Z,1021.98
2023-01-06T03:06:34.347Z,1021.93
2023-01-06T03:07:34.498Z,1021.92
2023-01-06T03:08:34.694Z,1021.87
2023-01-06T03:09:34.866Z,1021.88
2023-01-06T03:10:35.031Z,1021.84
2023-01-06T03:11:35.234Z,1021.80
2023-01-06T03:12:35.356Z,1021.80
2023-01-06T03:13:35.554Z,1021.78
2023-01-06T03:14:35.693Z,1021.71
2023-01-06T03:15:35.845Z,1021.67
2023-01-06T03:16:36.046Z,1021.71
2023-01-06T03:17:36.209Z,1021.67
2023-01-06T03:18:36.397Z,1021.65
2023-01-06T03:19:36.545Z,1021.67
2023-01-06T03:20:36.743Z,1021.64
2023-01-06T03:21:36.912Z,1021.66
2023-01-06T03:22:37.066Z,1021.64
2023-01-06T03:23:37.227Z,1021.64
2023-01-06T03:24:37.414Z,1021.66
2023-01-06T03:25:37.575Z,1021.67
2023-01-06T03:26:37.745Z,1021.64
2023-01-06T03:27:37.906Z,1021.63
2023-01-06T03:28:38.065Z,1021.66
2023-01-06T03:29:38.223Z,1021.60
2023-01-06T03:30:38.413Z,1021.60
2023-01-06T03:31:38.631Z,1021.60
2023-01-06T03:32:38.746Z,1021.61
2023-01-06T03:33:38.906Z,1021.51
2023-01-06T03:34:39.066Z,1021.53
2023-01-06T03:35:39.274Z,1021.47
2023-01-06T03:36:39.442Z,1021.44
2023-01-06T03:37:39.591Z,1021.44
2023-01-06T03:38:39.780Z,1021.45
2023-01-06T03:39:39.956Z,1021.43
2023-01-06T03:40:40.132Z,1021.42
2023-01-06T03:41:40.284Z,1021.43
2023-01-06T03:42:40.448Z,1021.43
2023-01-06T03:43:40.626Z,1021.38
2023-01-06T03:44:40.794Z,1021.36
2023-01-06T03:45:40.989Z,1021.37
2023-01-06T03:46:41.204Z,1021.34
2023-01-06T03:47:41.335Z,1021.34
2023-01-06T03:48:41.483Z,1021.34
2023-01-06T03:49:41.688Z,1021.31
2023-01-06T03:50:41.833Z,1021.31
2023-01-06T03:51:42.042Z,1021.30
2023-01-06T03:52:42.203Z,1021.32
2023-01-06T03:53:42.354Z,1021.33
2023-01-06T03:54:42.514Z,1021.36
2023-01-06T03:55:42.709Z,1021.34
2023-01-06T03:56:42.896Z,1021.34
2023-01-06T03:57:43.066Z,1021.37
2023-01-06T03:58:43.203Z,1021.35
2023-01-06T03:59:43.392Z,1021.32
2023-01-06T04:00:43.633Z,1021.31
2023-01-06T04:01:43.790Z,1021.29
2023-01-06T04:02:43.909Z,1021.32
2023-01-06T04:03:44.129Z,1021.31
2023-01-06T04:04:44.272Z,1021.35
2023-01-06T04:05:44.481Z,1021.33
2023-01-06T04:06:44.647Z,1021.27
2023-01-06T04:07:44.802Z,1021.25
2023-01-06T04:08:44.953Z,1021.23
2023-01-06T04:09:45.151Z,1021.20
2023-01-06T04:10:45.323Z,1021.21
2023-01-06T04:11:45.483Z,1021.21
2023-01-06T04:12:45.635Z,1021.20
2023-01-06T04:13:45.951Z,1021.16
2023-01-06T04:14:45.982Z,1021.12
2023-01-06T04:15:46.194Z,1021.14
2023-01-06T04:16:46.373Z,1021.15
2023-01-06T04:17:46.527Z,1021.12
2023-01-06T04:18:46.691Z,1021.08
2023-01-06T04:19:46.881Z,1021.07
2023-01-06T04:20:47.061Z,1021.11
2023-01-06T04:21:47.221Z,1021.09
2023-01-06T04:22:47.386Z,1021.10
2023-01-06T04:23:47.571Z,1021.09
2023-01-06T04:24:47.723Z,1021.09
2023-01-06T04:25:47.940Z,1021.09
2023-01-06T04:26:48.091Z,1021.06
2023-01-06T04:27:48.281Z,1021.07
2023-01-06T04:28:48.450Z,1021.04
2023-01-06T04:29:48.628Z,1021.06
2023-01-06T04:30:48.814Z,1021.07
2023-01-06T04:31:49.019Z,1021.06
2023-01-06T04:32:49.141Z,1021.00
2023-01-06T04:33:49.318Z,1020.98
2023-01-06T04:34:49.493Z,1020.98
2023-01-06T04:35:49.662Z,1021.00
2023-01-06T04:36:49.813Z,1020.95
2023-01-06T04:37:50.012Z,1020.98
2023-01-06T04:38:50.160Z,1020.89
2023-01-06T04:39:50.377Z,1020.90
2023-01-06T04:40:50.531Z,1020.91
2023-01-06T04:41:50.697Z,1020.82
2023-01-06T04:42:50.908Z,1020.91
2023-01-06T04:43:51.042Z,1020.94
2023-01-06T04:44:51.224Z,1020.89
2023-01-06T04:45:51.444Z,1020.87
2023-01-06T04:46:51.562Z,1020.79
2023-01-06T04:47:51.728Z,1020.77
2023-01-06T04:48:51.882Z,1020.73
2023-01-06T04:49:52.087Z,1020.72
2023-01-06T04:50:52.240Z,1020.68
2023-01-06T04:51:52.430Z,1020.66
2023-01-06T04:52:52.569Z,1020.65
2023-01-06T04:53:52.758Z,1020.67
2023-01-06T04:54:52.938Z,1020.65
2023-01-06T04:55:53.100Z,1020.69
2023-01-06T04:56:53.307Z,1020.66
2023-01-06T04:57:53.457Z,1020.63
2023-01-06T04:58:53.653Z,1020.59
2023-01-06T04:59:53.860Z,1020.59
2023-01-06T05:00:54.038Z,1020.55
2023-01-06T05:01:54.249Z,1020.53
2023-01-06T05:02:54.348Z,1020.49
2023-01-06T05:03:54.571Z,1020.50
2023-01-06T05:04:54.710Z,1020.46
2023-01-06T05:05:54.866Z,1020.44
2023-01-06T05:06:55.027Z,1020.39
2023-01-06T05:07:55.186Z,1020.42
2023-01-06T05:08:55.343Z,1020.41
2023-01-06T05:09:55.557Z,1020.41
2023-01-06T05:10:55.708Z,1020.40
2023-01-06T05:11:55.917Z,1020.41
2023-01-06T05:12:56.057Z,1020.39
2023-01-06T05:13:56.252Z,1020.41
2023-01-06T05:14:56.445Z,1020.39
2023-01-06T05:15:56.604Z,1020.42
2023-01-06T05:16:56.795Z,1020.39
2023-01-06T05:17:56.960Z,1020.39
2023-01-06T05:18:57.118Z,1020.33
2023-01-06T05:19:57.305Z,1020.35
2023-01-06T05:20:57.464Z,1020.33
2023-01-06T05:21:57.659Z,1020.29
2023-01-06T05:22:57.787Z,1020.30
2023-01-06T05:23:57.976Z,1020.27
2023-01-06T05:24:58.145Z,1020.29
2023-01-06T05:25:58.305Z,1020.21
2023-01-06T05:26:58.487Z,1020.21
2023-01-06T05:27:58.664Z,1020.19
2023-01-06T05:28:58.824Z,1020.13
2023-01-06T05:29:59.020Z,1020.12
2023-01-06T05:30:59.200Z,1020.13
2023-01-06T05:31:59.411Z,1020.10
2023-01-06T05:32:59.533Z,1020.22
2023-01-06T05:33:59.729Z,1020.19
2023-01-06T05:34:59.933Z,1020.18
2023-01-06T05:36:00.108Z,1020.21
2023-01-06T05:37:00.255Z,1020.18
2023-01-06T05:38:00.435Z,1020.19
2023-01-06T05:39:00.595Z,1020.16
2023-01-06T05:40:00.804Z,1020.19
2023-01-06T05:41:00.966Z,1020.16
2023-01-06T05:42:01.125Z,1020.12
2023-01-06T05:43:01.283Z,1020.15
2023-01-06T05:44:01.465Z,1020.20
2023-01-06T05:45:01.625Z,1020.17
2023-01-06T05:46:01.860Z,1020.08
2023-01-06T05:47:01.957Z,1020.10
2023-01-06T05:48:02.116Z,1020.05
2023-01-06T05:49:02.277Z,1020.09
2023-01-06T05:50:02.462Z,1020.11
2023-01-06T05:51:02.616Z,1020.12
2023-01-06T05:52:02.809Z,1020.14
2023-01-06T05:53:02.963Z,1020.09
2023-01-06T05:54:03.137Z,1020.09
2023-01-06T05:55:03.306Z,1020.05
2023-01-06T05:56:03.464Z,1020.07
2023-01-06T05:57:03.632Z,1020.05
2023-01-06T05:58:03.803Z,1020.09
2023-01-06T05:59:03.965Z,1020.13
2023-01-06T06:00:04.174Z,1020.12
2023-01-06T06:01:04.451Z,1020.10
2023-01-06T06:02:04.565Z,1020.15
2023-01-06T06:03:04.662Z,1020.10
2023-01-06T06:04:04.962Z,1020.08
2023-01-06T06:05:05.102Z,1020.10
2023-01-06T06:06:05.222Z,1020.06
2023-01-06T06:07:05.373Z,1019.97
2023-01-06T06:08:06.794Z,1019.96
2023-01-06T06:09:05.754Z,1019.84
2023-01-06T06:10:05.903Z,1019.88
2023-01-06T06:11:06.097Z,1019.90
2023-01-06T06:12:06.246Z,1019.80
2023-01-06T06:13:06.416Z,1019.73
2023-01-06T06:14:06.602Z,1019.85
2023-01-06T06:15:06.764Z,1019.77
2023-01-06T06:16:06.973Z,1019.78
2023-01-06T06:17:07.100Z,1019.80
2023-01-06T06:18:07.278Z,1019.74
2023-01-06T06:19:07.451Z,1019.79
2023-01-06T06:20:07.612Z,1019.72
2023-01-06T06:21:07.761Z,1019.76
2023-01-06T06:22:10.491Z,1019.80
2023-01-06T06:23:08.122Z,1019.78
2023-01-06T06:24:08.331Z,1019.82
2023-01-06T06:25:08.489Z,1019.82
2023-01-06T06:26:08.705Z,1019.84
2023-01-06T06:27:08.841Z,1019.79
2023-01-06T06:28:09.002Z,1019.79
2023-01-06T06:29:09.171Z,1019.76
2023-01-06T06:30:09.389Z,1019.78
2023-01-06T06:31:09.580Z,1019.79
2023-01-06T06:32:09.661Z,1019.79
2023-01-06T06:33:09.821Z,1019.79
2023-01-06T06:34:09.981Z,1019.76
2023-01-06T06:35:10.153Z,1019.80
2023-01-06T06:36:10.308Z,1019.73
2023-01-06T06:37:12.528Z,1019.70
2023-01-06T06:38:10.650Z,1019.74
2023-01-06T06:39:10.819Z,1019.68
2023-01-06T06:40:11.027Z,1019.74
2023-01-06T06:41:11.174Z,1019.74
2023-01-06T06:42:11.370Z,1019.75
2023-01-06T06:43:11.541Z,1019.73
2023-01-06T06:44:11.707Z,1019.69
2023-01-06T06:45:11.938Z,1019.69
2023-01-06T06:46:12.105Z,1019.69
2023-01-06T06:47:12.241Z,1019.67
2023-01-06T06:48:12.401Z,1019.66
2023-01-06T06:49:12.594Z,1019.65
2023-01-06T06:50:12.795Z,1019.62
2023-01-06T06:51:12.953Z,1019.60
2023-01-06T06:52:13.120Z,1019.59
2023-01-06T06:53:13.260Z,1019.56
2023-01-06T06:54:13.432Z,1019.57
2023-01-06T06:55:13.603Z,1019.60
2023-01-06T06:56:13.812Z,1019.63
2023-01-06T06:57:13.909Z,1019.63
2023-01-06T06:58:14.079Z,1019.59
2023-01-06T06:59:14.238Z,1019.60
2023-01-06T07:00:14.452Z,1019.56
2023-01-06T07:01:14.715Z,1019.55
2023-01-06T07:02:14.891Z,1019.55
2023-01-06T07:03:14.947Z,1019.52
2023-01-06T07:04:15.186Z,1019.56
2023-01-06T07:05:15.304Z,1019.52
2023-01-06T07:06:15.498Z,1019.58
2023-01-06T07:07:15.656Z,1019.57
2023-01-06T07:08:15.853Z,1019.52
2023-01-06T07:09:16.020Z,1019.50
2023-01-06T07:10:16.221Z,1019.49
2023-01-06T07:11:16.362Z,1019.46
2023-01-06T07:12:16.557Z,1019.40
2023-01-06T07:13:16.722Z,1019.43
2023-01-06T07:14:16.897Z,1019.46
2023-01-06T07:15:17.099Z,1019.45
2023-01-06T07:16:17.289Z,1019.46
2023-01-06T07:17:17.419Z,1019.47
2023-01-06T07:18:17.626Z,1019.43
2023-01-06T07:19:17.767Z,1019.44
2023-01-06T07:20:17.955Z,1019.34
2023-01-06T07:21:18.110Z,1019.33
2023-01-06T07:22:18.327Z,1019.37
2023-01-06T07:23:18.497Z,1019.46
2023-01-06T07:24:18.643Z,1019.57
2023-01-06T07:25:18.845Z,1019.61
2023-01-06T07:26:19.027Z,1019.58
2023-01-06T07:27:19.189Z,1019.58
2023-01-06T07:28:19.348Z,1019.53
2023-01-06T07:29:19.550Z,1019.51
2023-01-06T07:30:19.742Z,1019.48
2023-01-06T07:31:19.915Z,1019.48
2023-01-06T07:32:20.056Z,1019.50
2023-01-06T07:33:20.235Z,1019.47
2023-01-06T07:34:20.430Z,1019.42
2023-01-06T07:35:20.591Z,1019.41
2023-01-06T07:36:20.730Z,1019.36
2023-01-06T07:37:20.889Z,1019.37
2023-01-06T07:38:21.089Z,1019.38
2023-01-06T07:39:21.227Z,1019.40
2023-01-06T07:40:21.408Z,1019.39
2023-01-06T07:41:21.565Z,1019.38
2023-01-06T07:42:21.719Z,1019.40
2023-01-06T07:43:21.886Z,1019.42
2023-01-06T07:44:22.041Z,1019.31
2023-01-06T07:45:22.200Z,1019.25
2023-01-06T07:46:22.450Z,1019.35
2023-01-06T07:47:22.546Z,1019.40
2023-01-06T07:48:22.788Z,1019.54
2023-01-06T07:49:22.915Z,1019.60
2023-01-06T07:50:24.199Z,1019.55
2023-01-06T07:51:23.268Z,1019.65
2023-01-06T07:52:23.441Z,1019.69
2023-01-06T07:53:23.614Z,1019.71
2023-01-06T07:54:23.767Z,1019.70
2023-01-06T07:55:23.912Z,1019.66
2023-01-06T07:56:24.106Z,1019.61
2023-01-06T07:57:24.257Z,1019.59
2023-01-06T07:58:24.445Z,1019.48
2023-01-06T07:59:24.664Z,1019.45
2023-01-06T08:00:24.803Z,1019.48
2023-01-06T08:01:25.098Z,1019.46
2023-01-06T08:02:25.290Z,1019.44
2023-01-06T08:03:25.453Z,1019.35
2023-01-06T08:04:25.695Z,1019.33
2023-01-06T08:05:25.704Z,1019.27
2023-01-06T08:06:25.846Z,1019.27
2023-01-06T08:07:26.035Z,1019.26
2023-01-06T08:08:26.191Z,1019.27
2023-01-06T08:09:26.394Z,1019.30
2023-01-06T08:10:26.562Z,1019.28
2023-01-06T08:11:26.766Z,1019.31
2023-01-06T08:12:26.916Z,1019.25
2023-01-06T08:13:27.100Z,1019.26
2023-01-06T08:14:27.263Z,1019.24
2023-01-06T08:15:27.447Z,1019.27
2023-01-06T08:16:27.598Z,1019.29
2023-01-06T08:17:27.801Z,1019.27
2023-01-06T08:18:27.973Z,1019.23
2023-01-06T08:19:28.193Z,1019.14
2023-01-06T08:20:28.293Z,1019.06
2023-01-06T08:21:28.462Z,1019.04
2023-01-06T08:22:28.613Z,1019.09
2023-01-06T08:23:28.791Z,1019.07
2023-01-06T08:24:29.388Z,1019.03
2023-01-06T08:25:29.121Z,1019.02
2023-01-06T08:26:29.282Z,1019.02
2023-01-06T08:27:29.517Z,1019.04
2023-01-06T08:28:29.642Z,1019.06
2023-01-06T08:29:29.815Z,1019.08
2023-01-06T08:30:29.955Z,1019.08
2023-01-06T08:31:30.218Z,1019.14
2023-01-06T08:32:30.344Z,1019.13
2023-01-06T08:33:30.586Z,1019.07
2023-01-06T08:34:30.726Z,1019.10
2023-01-06T08:35:30.914Z,1019.08
2023-01-06T08:36:31.049Z,1019.01
2023-01-06T08:37:31.241Z,1018.98
2023-01-06T08:38:31.416Z,1018.97
2023-01-06T08:39:31.649Z,1018.99
2023-01-06T08:40:31.787Z,1019.00
2023-01-06T08:41:31.983Z,1019.04
2023-01-06T08:42:32.137Z,1019.01
2023-01-06T08:43:32.315Z,1019.02
2023-01-06T08:44:32.475Z,1019.04
2023-01-06T08:45:32.649Z,1019.01
2023-01-06T08:46:32.867Z,1019.01
2023-01-06T08:47:32.992Z,1018.99
2023-01-06T08:48:33.161Z,1018.99
2023-01-06T08:49:33.385Z,1019.00
2023-01-06T08:50:33.506Z,1018.97
2023-01-06T08:51:33.661Z,1018.94
2023-01-06T08:52:33.825Z,1018.88
2023-01-06T08:53:34.000Z,1018.84
2023-01-06T08:54:34.158Z,1018.82
2023-01-06T08:55:34.342Z,1018.82
2023-01-06T08:56:34.514Z,1018.78
2023-01-06T08:57:34.704Z,1018.79
2023-01-06T08:58:34.885Z,1018.77
2023-01-06T08:59:35.033Z,1018.75
2023-01-06T09:00:35.221Z,1018.77
2023-01-06T09:01:35.531Z,1018.78
2023-01-06T09:02:35.582Z,1018.84
2023-01-06T09:03:35.874Z,1018.81
2023-01-06T09:04:35.960Z,1018.88
2023-01-06T09:05:36.084Z,1018.94
2023-01-06T09:06:36.241Z,1018.99
2023-01-06T09:07:36.427Z,1019.02
2023-01-06T09:08:36.579Z,1019.03
2023-01-06T09:09:36.754Z,1019.06
2023-01-06T09:10:36.911Z,1019.08
2023-01-06T09:11:37.072Z,1019.02
2023-01-06T09:12:37.249Z,1018.98
2023-01-06T09:13:37.413Z,1018.96
2023-01-06T09:14:37.577Z,1018.91
2023-01-06T09:15:37.741Z,1018.93
2023-01-06T09:16:37.905Z,1018.89
2023-01-06T09:17:38.061Z,1018.90
2023-01-06T09:18:38.259Z,1018.94
2023-01-06T09:19:38.420Z,1018.88
2023-01-06T09:20:38.603Z,1018.91
2023-01-06T09:21:38.783Z,1018.88
2023-01-06T09:22:38.974Z,1018.87
2023-01-06T09:23:39.171Z,1018.86
2023-01-06T09:24:39.330Z,1018.85
2023-01-06T09:25:39.512Z,1018.76
2023-01-06T09:26:39.701Z,1018.75
2023-01-06T09:27:39.852Z,1018.76
2023-01-06T09:28:40.024Z,1018.81
2023-01-06T09:29:40.169Z,1018.80
2023-01-06T09:30:40.329Z,1018.74
2023-01-06T09:31:40.500Z,1018.67
2023-01-06T09:32:40.658Z,1018.67
2023-01-06T09:33:40.859Z,1018.67
2023-01-06T09:34:41.009Z,1018.65
2023-01-06T09:35:41.185Z,1018.69
2023-01-06T09:36:41.369Z,1018.65
2023-01-06T09:37:41.558Z,1018.62
2023-01-06T09:38:41.741Z,1018.63
2023-01-06T09:39:41.883Z,1018.56
2023-01-06T09:40:42.059Z,1018.55
2023-01-06T09:41:42.260Z,1018.56
2023-01-06T09:42:42.419Z,1018.56
2023-01-06T09:43:42.593Z,1018.61
2023-01-06T09:44:42.746Z,1018.64
2023-01-06T09:45:42.958Z,1018.63
2023-01-06T09:46:43.150Z,1018.55
2023-01-06T09:47:43.267Z,1018.51
2023-01-06T09:48:43.522Z,1018.49
2023-01-06T09:49:43.619Z,1018.48
2023-01-06T09:50:43.798Z,1018.45
2023-01-06T09:51:44.003Z,1018.43
2023-01-06T09:52:44.189Z,1018.42
2023-01-06T09:53:44.396Z,1018.44
2023-01-06T09:54:44.564Z,1018.43
2023-01-06T09:55:44.734Z,1018.37
2023-01-06T09:56:44.924Z,1018.33
2023-01-06T09:57:45.132Z,1018.31
2023-01-06T09:58:45.276Z,1018.26
2023-01-06T09:59:45.413Z,1018.29
2023-01-06T10:00:45.608Z,1018.27
2023-01-06T10:01:45.931Z,1018.30
2023-01-06T10:02:45.919Z,1018.29
2023-01-06T10:03:46.148Z,1018.21
2023-01-06T10:04:46.261Z,1018.20
2023-01-06T10:05:46.536Z,1018.17
2023-01-06T10:06:46.599Z,1018.12
2023-01-06T10:07:46.805Z,1018.09
2023-01-06T10:08:46.955Z,1018.06
2023-01-06T10:09:47.155Z,1018.06
2023-01-06T10:10:47.299Z,1018.12
2023-01-06T10:11:47.498Z,1018.05
2023-01-06T10:12:47.649Z,1018.09
2023-01-06T10:13:47.830Z,1018.06
2023-01-06T10:14:48.043Z,1018.05
2023-01-06T10:15:48.287Z,1018.05
2023-01-06T10:16:48.370Z,1018.00
2023-01-06T10:17:48.526Z,1017.94
2023-01-06T10:18:48.698Z,1017.97
2023-01-06T10:19:48.898Z,1018.01
2023-01-06T10:20:50.800Z,1017.94
2023-01-06T10:21:49.285Z,1018.00
2023-01-06T10:22:49.429Z,1017.90
2023-01-06T10:23:49.577Z,1017.91
2023-01-06T10:24:49.759Z,1017.89
2023-01-06T10:25:49.950Z,1017.87
2023-01-06T10:26:50.138Z,1017.90
2023-01-06T10:27:50.323Z,1017.92
2023-01-06T10:28:50.478Z,1017.90
2023-01-06T10:29:50.686Z,1017.83
2023-01-06T10:30:50.853Z,1017.78
2023-01-06T10:31:51.059Z,1017.77
2023-01-06T10:32:51.190Z,1017.72
2023-01-06T10:33:51.394Z,1017.71
2023-01-06T10:34:51.531Z,1017.73
2023-01-06T10:35:51.752Z,1017.71
2023-01-06T10:36:51.904Z,1017.69
2023-01-06T10:37:52.049Z,1017.70
2023-01-06T10:38:52.198Z,1017.65
2023-01-06T10:39:52.379Z,1017.63
2023-01-06T10:40:52.576Z,1017.61
2023-01-06T10:41:52.765Z,1017.59
2023-01-06T10:42:52.920Z,1017.64
2023-01-06T10:43:53.115Z,1017.58
2023-01-06T10:44:53.255Z,1017.58
2023-01-06T10:45:53.448Z,1017.54
2023-01-06T10:46:53.682Z,1017.57
2023-01-06T10:47:53.833Z,1017.65
2023-01-06T10:48:53.958Z,1017.60
2023-01-06T10:49:54.158Z,1017.61
2023-01-06T10:50:57.012Z,1017.55
2023-01-06T10:51:54.533Z,1017.53
2023-01-06T10:52:54.665Z,1017.54
2023-01-06T10:53:54.867Z,1017.57
2023-01-06T10:54:55.028Z,1017.59
2023-01-06T10:55:55.252Z,1017.57
2023-01-06T10:56:55.368Z,1017.60
2023-01-06T10:57:55.541Z,1017.58
2023-01-06T10:58:55.767Z,1017.57
2023-01-06T10:59:55.896Z,1017.57
2023-01-06T11:00:56.111Z,1017.60
2023-01-06T11:01:56.342Z,1017.53
2023-01-06T11:03:09.102Z,1017.54
2023-01-06T11:03:57.624Z,1017.55
2023-01-06T11:04:56.768Z,1017.54
2023-01-06T11:05:56.939Z,1017.50
2023-01-06T11:06:57.100Z,1017.56
2023-01-06T11:07:57.331Z,1017.58
2023-01-06T11:08:57.461Z,1017.49
2023-01-06T11:09:57.638Z,1017.50
2023-01-06T11:10:57.784Z,1017.43
2023-01-06T11:11:57.949Z,1017.43
2023-01-06T11:12:58.118Z,1017.41
2023-01-06T11:13:58.342Z,1017.40
2023-01-06T11:14:58.501Z,1017.39
2023-01-06T11:15:58.718Z,1017.41
2023-01-06T11:16:58.816Z,1017.48
2023-01-06T11:17:59.000Z,1017.41
2023-01-06T11:18:59.181Z,1017.36
2023-01-06T11:19:59.329Z,1017.30
2023-01-06T11:20:59.489Z,1017.41
2023-01-06T11:21:59.673Z,1017.44
2023-01-06T11:22:59.829Z,1017.42
2023-01-06T11:24:00.038Z,1017.34
2023-01-06T11:25:00.155Z,1017.33
2023-01-06T11:26:00.376Z,1017.35
2023-01-06T11:27:00.486Z,1017.33
2023-01-06T11:28:00.642Z,1017.32
2023-01-06T11:29:00.823Z,1017.29
2023-01-06T11:30:00.987Z,1017.25
2023-01-06T11:31:01.151Z,1017.28
2023-01-06T11:32:01.337Z,1017.30
2023-01-06T11:33:01.522Z,1017.22
2023-01-06T11:34:01.717Z,1017.24
2023-01-06T11:35:01.864Z,1017.30
2023-01-06T11:36:02.049Z,1017.30
2023-01-06T11:37:02.206Z,1017.28
2023-01-06T11:38:02.394Z,1017.28
2023-01-06T11:39:02.623Z,1017.26
2023-01-06T11:40:05.527Z,1017.23
2023-01-06T11:41:03.938Z,1017.23
2023-01-06T11:42:03.136Z,1017.25
2023-01-06T11:43:03.295Z,1017.32
2023-01-06T11:44:03.488Z,1017.26
2023-01-06T11:45:03.655Z,1017.21
2023-01-06T11:46:03.940Z,1017.22
2023-01-06T11:47:03.999Z,1017.31
2023-01-06T11:48:04.179Z,1017.33
2023-01-06T11:49:04.384Z,1017.28
2023-01-06T11:50:04.548Z,1017.20
2023-01-06T11:51:04.760Z,1017.19
2023-01-06T11:52:04.897Z,1017.14
2023-01-06T11:53:05.077Z,1017.16
2023-01-06T11:54:05.269Z,1017.13
2023-01-06T11:55:05.458Z,1017.07
2023-01-06T11:56:05.645Z,1017.08
2023-01-06T11:57:05.822Z,1017.09
2023-01-06T11:58:06.020Z,1017.12
2023-01-06T11:59:06.180Z,1017.10
2023-01-06T12:00:06.338Z,1017.11
2023-01-06T12:01:06.676Z,1017.15
2023-01-06T12:02:06.711Z,1017.11
2023-01-06T12:03:06.914Z,1017.14
2023-01-06T12:04:07.011Z,1017.14
2023-01-06T12:05:07.179Z,1017.08
2023-01-06T12:06:07.352Z,1017.06
2023-01-06T12:07:07.540Z,1017.07